メインページ
METAR-TAF:

METAR-TAF

空港 :

サギノー, ミシガン州, アメリカ合衆国

緯度: 43-31-58N, 経度: 084-04-46W, 海抜: 204m

現時点の気象観測

当レポートは11分前の13:53(UTC)に作成
西/北西の風 11kt
気温 -2°C
湿度 63%
気圧 1014 hPa
視程: 16.1km
高度6000ftの曇り

METAR: KMBS 151353Z 30011KT 10SM OVC060 M02/M08 A2995 RMK AO2 SLP150 T10221083

時間: 09:04 (14:04 UTC)

予報

当レポートは2時間42分前の11:22(UTC)に作成
予報は15日の 12時(UTC)から 16日の 12時(UTC)まで有効
西/北西の風 12kt
視程: 10km
高度2500ftの雲は散在している
高度4000ftの曇り
15日の 12時(UTC)から 15日の 15時(UTC)まで一時的に
高度2500ftの曇り
15日の 1500時(UTC)から
西の風 10kt
視程: 10km
高度3000ftの雲は散在している
高度3500ftの千切れ雲あり
16日の 0100時(UTC)から
西/南西の風 5kt
視程: 10km
高度3000ftの千切れ雲あり
16日の 0800時(UTC)から
南西の風 3kt
視程: 10km
高度12000ftの曇り

TAF: KMBS 151122Z 1512/1612 30012KT P6SM SCT025 OVC040 TEMPO 1512/1515 OVC025 FM151500 28010KT P6SM SCT030 BKN035 FM160100 25005KT P6SM BKN030 FM160800 23003KT P6SM OVC120

4,000以上の空港の気象観測と天気予報(METAR報とTAF報)

利用可能な観測所は地図上に黄色い丸と赤い丸で示す。

丸の上にカーソルを重ねると観測所名を参照できる。

次にクリックすると気象観測と天気予報を参照できる。

マップの切り替え:黒色「×」印の緑ボタンをクリックして拡大、「-」印の緑ボタンをクリックして縮小、緑色の三角印をクリックして隣りの地図に切り替え


METAR-TAF: